PDT,Max TemperatureF,Mean TemperatureF,Min TemperatureF,Max Dew PointF,MeanDew PointF,Min DewpointF,Max Humidity, Mean Humidity, Min Humidity, Max Sea Level PressureIn, Mean Sea Level PressureIn, Min Sea Level PressureIn, Max VisibilityMiles, Mean VisibilityMiles, Min VisibilityMiles, Max Wind SpeedMPH, Mean Wind SpeedMPH, Max Gust SpeedMPH,PrecipitationIn, CloudCover, Events, WindDirDegrees
2011-10-1,55,50,46,52,48,43,94,87,77,29.99,29.93,29.88,10,7,1,5,0,,0.00,7,,140
2011-10-2,64,56,48,52,48,45,94,80,56,29.99,29.94,29.87,10,5,0,12,1,16,0.03,7,,169
2011-10-3,60,56,53,54,50,46,94,78,63,29.85,29.83,29.82,10,7,0,15,4,22,0.00,8,,133
2011-10-4,62,56,51,48,45,43,82,68,48,29.79,29.63,29.47,10,10,7,15,8,21,0.00,6,,141
2011-10-5,53,52,50,48,47,46,88,84,77,29.75,29.58,29.43,10,10,6,8,2,,0.02,8,,134
2011-10-6,57,52,48,50,48,46,94,83,72,30.06,29.93,29.77,10,9,3,5,0,,0.00,8,,170
2011-10-7,57,54,50,50,48,46,88,85,77,30.22,30.14,30.07,10,7,2,0,0,,0.03,7,,-1
2011-10-8,66,50,35,52,42,34,93,80,52,30.26,30.20,30.09,10,6,0,14,1,17,0.00,4,,162
2011-10-9,60,56,51,50,47,45,88,76,59,30.11,30.06,29.94,10,10,5,12,5,,0.00,7,,194
2011-10-10,60,54,48,54,48,45,93,81,68,29.83,29.62,29.50,10,10,9,24,5,31,0.01,7,,152
2011-10-11,59,56,53,50,48,48,88,78,67,29.95,29.73,29.55,10,10,10,22,15,30,0.01,8,,158
2011-10-12,57,54,51,46,46,43,82,73,59,30.25,30.19,30.09,10,10,10,14,8,,0.00,7,,168
2011-10-13,59,48,37,45,41,34,93,78,59,30.28,30.22,30.08,10,9,0,14,3,17,0.01,0,,321
2011-10-14,55,50,44,45,43,41,93,81,63,30.07,30.04,30.01,10,10,7,9,1,,0.00,4,,306
2011-10-15,57,46,35,46,39,34,93,83,63,30.15,30.10,30.04,10,5,0,12,2,,0.00,4,,300
2011-10-16,51,43,35,43,39,34,93,84,71,30.31,30.18,30.07,10,6,0,9,1,,0.00,7,,148
2011-10-17,60,48,35,46,41,32,93,78,55,30.46,30.41,30.36,10,9,0,10,2,,0.00,2,,316
2011-10-18,62,48,33,48,40,28,93,79,59,30.35,30.21,30.03,10,6,0,10,2,,0.00,2,,309
2011-10-19,64,53,42,52,46,39,93,82,63,30.08,30.00,29.93,10,7,1,14,3,18,0.00,5,,172
2011-10-20,55,53,50,50,48,46,88,85,82,30.15,30.11,30.08,10,9,1,12,7,,0.00,8,,144
2011-10-21,57,50,44,52,48,41,93,88,82,30.22,30.15,30.12,10,7,0,17,4,28,0.03,8,,152
2011-10-22,60,56,51,55,52,50,94,90,82,30.23,30.16,30.09,10,8,2,15,2,,0.42,8,,161
2011-10-23,57,54,50,52,48,43,94,82,59,30.23,30.20,30.14,10,8,0,10,1,,0.02,7,,304
2011-10-24,53,45,37,45,39,36,93,82,58,30.41,30.29,30.17,10,7,0,13,1,16,0.02,6,,292
2011-10-25,53,46,39,43,39,37,93,81,66,30.50,30.46,30.41,10,10,3,9,2,,0.00,5,,328
2011-10-26,51,40,30,41,34,28,93,78,50,30.43,30.30,30.21,10,9,0,14,2,18,0.00,5,,160
2011-10-27,51,42,33,43,36,30,93,84,62,30.37,30.32,30.21,10,5,0,7,1,,0.00,5,,316
2011-10-28,51,44,37,45,38,34,93,74,50,30.10,29.98,29.89,10,10,5,18,4,25,0.00,6,,161
2011-10-29,57,47,37,45,42,36,93,82,59,30.33,30.26,30.13,10,8,0,7,0,,0.00,6,,142
2011-10-30,55,45,35,52,44,32,94,89,76,30.19,30.09,30.04,10,8,2,15,2,21,0.01,7,,2
2011-10-31,51,46,42,43,41,37,93,81,62,30.44,30.34,30.21,10,10,8,14,2,20,0.01,7,,328